Time;durP1;ratioP1;P1;durP2;ratioP2;P2;SDS_P1;SDS_P2;PMS_P1;PMS_P2;Temp;Humidity;BMP_temperature;BMP_pressure;BME280_temperature;BME280_humidity;BME280_pressure;Samples;Min_cycle;Max_cycle;Signal;HPM_P1;HPM_P2
2023/04/10 00:02:03;;;;;;;6.80;4.70;;;;;;;8.57;90.10;99238.77;105225;1265;74639;-25
2023/04/10 00:04:39;;;;;;;6.70;4.30;;;;;;;8.62;88.90;99238.96;105209;1262;75786;-24
2023/04/10 00:07:10;;;;;;;7.20;4.30;;;;;;;8.32;90.79;99241.36;105180;1263;74132;-25
2023/04/10 00:17:15;;;;;;;7.70;4.10;;;;;;;9.50;85.79;99241.03;102693;1290;599962;-23
2023/04/10 00:19:44;;;;;;;5.30;4.60;;;;;;;9.49;84.56;99241.95;105196;1263;61352;-23
2023/04/10 00:22:18;;;;;;;8.10;4.80;;;;;;;9.24;85.45;99239.98;105204;1269;61761;-23
2023/04/10 00:24:46;;;;;;;9.60;6.30;;;;;;;9.13;86.35;99238.32;105134;1263;73306;-23
2023/04/10 00:27:15;;;;;;;14.60;7.30;;;;;;;8.81;87.38;99236.98;105228;1263;75811;-23
2023/04/10 00:29:44;;;;;;;9.20;4.80;;;;;;;8.63;88.43;99238.58;103582;1263;2043619;-23
2023/04/10 00:32:24;;;;;;;9.90;5.00;;;;;;;8.87;88.19;99238.80;104739;1263;61920;-23
2023/04/10 00:34:56;;;;;;;5.70;4.40;;;;;;;9.13;87.49;99239.52;105836;1253;61240;-23
2023/04/10 00:37:26;;;;;;;6.60;4.60;;;;;;;9.23;86.58;99236.56;105983;1253;72501;-23
2023/04/10 00:39:55;;;;;;;7.60;5.80;;;;;;;8.93;87.51;99236.11;106028;1253;75012;-24
2023/04/10 00:42:23;;;;;;;6.70;5.50;;;;;;;8.52;89.85;99239.32;105899;1250;74266;-24
2023/04/10 00:44:53;;;;;;;7.20;4.40;;;;;;;8.31;91.32;99235.89;105821;1250;63227;-24
2023/04/10 00:47:26;;;;;;;6.80;5.40;;;;;;;8.70;91.01;99233.23;105888;1250;61825;-23
2023/04/10 00:49:55;;;;;;;10.60;6.40;;;;;;;8.94;89.01;99229.33;105732;1256;73741;-24
2023/04/10 00:52:24;;;;;;;10.10;7.20;;;;;;;8.84;89.10;99229.98;105828;1259;75693;-23
2023/04/10 00:54:53;;;;;;;7.30;6.60;;;;;;;8.50;90.90;99229.24;105862;1250;72876;-26
2023/04/10 00:57:23;;;;;;;10.20;6.90;;;;;;;8.41;91.66;99228.98;105778;1251;61195;-24
2023/04/10 00:59:55;;;;;;;4.90;4.40;;;;;;;8.21;92.99;99220.66;105622;1259;61680;-24
2023/04/10 01:02:25;;;;;;;7.40;4.50;;;;;;;8.61;91.95;99224.86;106043;1251;74606;-25
2023/04/10 01:04:55;;;;;;;8.60;5.80;;;;;;;9.09;89.19;99223.91;105942;1256;76314;-24
2023/04/10 01:07:43;;;;;;;8.80;5.70;;;;;;;8.84;89.21;99220.83;106007;1250;73260;-25
2023/04/10 01:10:34;;;;;;;11.00;6.50;;;;;;;8.54;90.78;99229.30;106028;1250;61711;-25
2023/04/10 01:13:15;;;;;;;4.70;4.20;;;;;;;8.22;92.48;99226.83;105888;1256;61616;-24
2023/04/10 01:16:05;;;;;;;5.90;4.40;;;;;;;8.54;92.37;99221.17;105792;1259;74629;-25
2023/04/10 01:18:49;;;;;;;6.80;5.00;;;;;;;9.05;89.61;99224.70;105797;1251;75866;-25
2023/04/10 01:21:18;;;;;;;8.00;5.40;;;;;;;9.07;88.38;99222.64;105474;1257;73272;-25
2023/04/10 01:24:11;;;;;;;7.30;6.00;;;;;;;8.85;88.67;99217.66;105788;1252;61874;-25
2023/04/10 01:27:14;;;;;;;8.20;6.00;;;;;;;8.51;90.58;99217.10;105901;1256;61259;-25
2023/04/10 01:29:46;;;;;;;8.40;5.30;;;;;;;8.45;91.81;99217.28;105923;1256;74613;-25
2023/04/10 01:32:19;;;;;;;7.40;5.20;;;;;;;8.88;89.84;99215.84;105728;1253;75824;-25
2023/04/10 01:34:53;;;;;;;7.70;6.30;;;;;;;8.90;88.71;99219.20;105713;1257;72778;-26
2023/04/10 01:37:25;;;;;;;9.90;7.20;;;;;;;8.45;90.58;99215.73;105640;1259;61134;-25
2023/04/10 01:40:00;;;;;;;10.00;6.00;;;;;;;8.20;92.34;99217.09;105744;1253;61116;-24
2023/04/10 01:42:30;;;;;;;6.50;4.80;;;;;;;8.29;92.68;99214.62;105511;1251;73895;-25
2023/04/10 01:44:59;;;;;;;7.30;5.80;;;;;;;8.78;90.09;99213.98;105622;1257;75799;-25
2023/04/10 01:47:28;;;;;;;9.40;6.60;;;;;;;8.77;88.69;99214.59;105712;1253;74343;-25
2023/04/10 01:49:57;;;;;;;9.30;6.80;;;;;;;8.54;89.56;99219.27;105745;1258;61203;-25
2023/04/10 01:52:26;;;;;;;9.20;6.70;;;;;;;8.42;90.75;99224.23;105700;1259;61757;-25
2023/04/10 01:55:08;;;;;;;7.20;5.40;;;;;;;8.12;92.69;99222.67;105879;1253;74696;-25
2023/04/10 01:57:45;;;;;;;9.50;5.80;;;;;;;8.51;91.87;99223.14;105837;1253;75556;-25
2023/04/10 02:00:19;;;;;;;8.70;6.30;;;;;;;8.76;90.08;99221.03;105514;1254;74175;-25
2023/04/10 02:02:50;;;;;;;10.00;6.80;;;;;;;8.79;89.57;99222.21;105555;1254;61849;-25
2023/04/10 02:05:19;;;;;;;9.20;7.70;;;;;;;8.47;90.82;99226.01;105607;1256;61071;-25
2023/04/10 02:07:56;;;;;;;10.30;5.40;;;;;;;8.08;94.20;99229.70;105538;1254;74500;-25
2023/04/10 02:10:53;;;;;;;9.50;6.40;;;;;;;8.56;92.52;99231.77;105733;1253;75775;-25
2023/04/10 02:13:23;;;;;;;11.90;7.10;;;;;;;8.76;90.64;99230.03;105709;1256;74002;-23
2023/04/10 02:15:52;;;;;;;11.60;7.80;;;;;;;8.54;91.28;99228.31;105520;1252;61693;-25
2023/04/10 02:18:22;;;;;;;11.50;8.10;;;;;;;8.17;93.50;99230.63;105584;1259;62341;-25
2023/04/10 02:20:51;;;;;;;10.10;6.00;;;;;;;8.24;94.40;99229.98;105912;1253;74582;-25
2023/04/10 02:23:21;;;;;;;11.80;6.90;;;;;;;8.61;92.21;99230.60;105908;1256;75632;-25
2023/04/10 02:25:49;;;;;;;10.20;7.80;;;;;;;8.66;91.03;99234.02;105944;1255;74256;-25
2023/04/10 02:28:22;;;;;;;11.00;7.60;;;;;;;8.44;92.31;99233.11;105889;1253;61204;-25
2023/04/10 02:30:52;;;;;;;11.50;8.20;;;;;;;8.34;92.68;99233.81;105868;1256;61658;-25
2023/04/10 02:33:21;;;;;;;8.60;6.30;;;;;;;8.31;93.28;99233.99;105750;1257;74554;-25
2023/04/10 02:35:50;;;;;;;9.40;6.00;;;;;;;8.67;92.14;99231.85;105648;1256;75833;-25
2023/04/10 02:38:20;;;;;;;9.40;6.70;;;;;;;9.06;89.19;99227.94;105552;1252;74196;-23
2023/04/10 02:40:49;;;;;;;9.70;7.00;;;;;;;9.12;88.45;99230.11;105564;1254;62087;-25
2023/04/10 02:43:18;;;;;;;11.50;8.00;;;;;;;8.81;89.43;99229.34;105715;1253;61308;-25
2023/04/10 02:45:47;;;;;;;14.70;8.10;;;;;;;8.60;90.63;99230.31;105588;1254;74539;-25
2023/04/10 02:48:20;;;;;;;10.20;5.70;;;;;;;8.55;91.41;99236.55;105591;1256;74031;-25
2023/04/10 02:50:57;;;;;;;12.00;6.60;;;;;;;9.00;90.28;99232.13;105891;1257;74139;-23
2023/04/10 02:53:25;;;;;;;12.80;8.30;;;;;;;9.50;87.46;99231.13;105577;1251;61884;-23
2023/04/10 02:55:57;;;;;;;13.00;10.20;;;;;;;9.42;86.66;99232.79;105565;1256;61884;-23
2023/04/10 02:58:27;;;;;;;50.70;45.40;;;;;;;9.05;88.22;99231.28;105886;1257;74514;-23
2023/04/10 03:00:56;;;;;;;52.90;47.50;;;;;;;8.94;89.20;99227.23;105367;1253;75768;-23
2023/04/10 03:03:43;;;;;;;80.30;46.10;;;;;;;8.77;90.09;99229.10;105529;1256;74249;-24
2023/04/10 03:06:12;;;;;;;246.30;98.10;;;;;;;8.98;89.99;99230.36;105722;1256;61163;-26
2023/04/10 03:08:42;;;;;;;345.40;136.70;;;;;;;9.15;88.63;99229.14;105911;1256;61167;-25
2023/04/10 03:11:12;;;;;;;416.40;144.50;;;;;;;9.04;89.06;99229.10;105895;1258;74524;-25
2023/04/10 03:13:42;;;;;;;407.60;144.50;;;;;;;8.74;90.22;99230.19;105921;1256;75854;-25
2023/04/10 03:16:11;;;;;;;411.20;134.30;;;;;;;8.45;92.53;99229.23;105954;1254;74159;-25
2023/04/10 03:18:40;;;;;;;365.70;118.80;;;;;;;8.37;93.49;99232.38;105945;1257;63324;-25
2023/04/10 03:21:13;;;;;;;302.10;100.10;;;;;;;8.75;91.95;99229.77;105836;1258;62103;-25
2023/04/10 03:23:43;;;;;;;551.90;184.50;;;;;;;8.81;91.18;99228.98;105881;1257;74527;-25
2023/04/10 03:26:12;;;;;;;452.10;137.60;;;;;;;8.61;92.02;99231.95;105943;1251;75398;-25
2023/04/10 03:28:41;;;;;;;353.00;97.70;;;;;;;8.46;93.05;99237.63;105950;1256;74234;-25
2023/04/10 03:31:11;;;;;;;153.60;48.60;;;;;;;8.48;93.68;99236.48;105856;1262;62689;-26
2023/04/10 03:33:47;;;;;;;139.20;45.60;;;;;;;8.74;92.56;99234.35;105580;1251;61121;-25
2023/04/10 03:36:15;;;;;;;98.20;31.10;;;;;;;8.78;91.64;99233.38;105850;1256;73515;-25
2023/04/10 03:38:44;;;;;;;610.50;162.00;;;;;;;8.50;92.88;99238.92;105669;1257;75831;-25
2023/04/10 03:41:13;;;;;;;169.70;49.10;;;;;;;8.36;94.26;99237.47;105801;1258;74020;-24
2023/04/10 03:43:41;;;;;;;330.70;85.40;;;;;;;8.42;94.40;99236.13;105715;1257;61900;-25
2023/04/10 03:46:10;;;;;;;521.50;141.30;;;;;;;8.45;94.24;99235.45;105587;1251;61664;-25
2023/04/10 03:48:44;;;;;;;486.70;136.10;;;;;;;8.46;94.53;99236.27;105898;1256;73967;-25
2023/04/10 03:51:12;;;;;;;682.80;178.90;;;;;;;8.32;95.61;99234.77;105805;1259;75813;-25
2023/04/10 03:53:41;;;;;;;393.10;114.30;;;;;;;8.42;96.00;99237.72;105914;1256;74240;-25
2023/04/10 03:56:15;;;;;;;278.80;73.20;;;;;;;8.81;93.78;99235.23;105753;1253;61701;-25
2023/04/10 03:58:46;;;;;;;594.50;164.50;;;;;;;9.10;92.61;99238.73;105631;1251;61712;-24
2023/04/10 04:01:16;;;;;;;590.70;197.20;;;;;;;8.89;92.51;99236.88;105817;1254;74304;-24
2023/04/10 04:04:03;;;;;;;119.30;53.00;;;;;;;8.72;93.51;99240.67;105623;1257;75731;-24
2023/04/10 04:06:50;;;;;;;59.80;26.50;;;;;;;8.53;95.05;99241.32;105695;1257;74032;-24
2023/04/10 04:09:36;;;;;;;61.60;25.60;;;;;;;8.83;93.96;99241.84;105572;1257;61908;-24
2023/04/10 04:12:41;;;;;;;87.30;32.20;;;;;;;9.08;92.13;99243.52;105826;1255;61587;-24
2023/04/10 04:15:28;;;;;;;54.90;23.70;;;;;;;9.09;92.24;99244.02;105724;1254;74617;-24
2023/04/10 04:18:35;;;;;;;58.60;27.70;;;;;;;8.97;92.07;99242.39;105804;1260;75834;-24
2023/04/10 04:21:22;;;;;;;25.80;13.30;;;;;;;8.97;93.10;99248.61;105634;1256;74337;-25
2023/04/10 04:24:23;;;;;;;19.40;10.80;;;;;;;9.73;89.93;99252.28;105379;1251;61956;-25
2023/04/10 04:27:10;;;;;;;17.50;11.90;;;;;;;10.02;88.04;99254.16;105707;1256;61779;-24
2023/04/10 04:29:59;;;;;;;18.90;12.40;;;;;;;9.88;87.33;99254.83;105442;1260;74401;-24
2023/04/10 04:32:55;;;;;;;23.60;14.60;;;;;;;9.38;88.84;99255.20;105696;1252;75921;-24
2023/04/10 04:35:34;;;;;;;42.30;20.60;;;;;;;9.12;90.69;99254.36;105753;1255;74076;-24
2023/04/10 04:38:18;;;;;;;41.80;20.20;;;;;;;9.30;90.91;99256.13;105725;1252;61815;-24
2023/04/10 04:41:24;;;;;;;25.10;15.00;;;;;;;9.58;88.88;99258.45;105688;1254;61830;-24
2023/04/10 04:44:19;;;;;;;36.60;20.60;;;;;;;9.47;89.29;99256.33;105740;1257;75391;-24
2023/04/10 04:47:10;;;;;;;28.90;17.30;;;;;;;9.42;90.03;99262.58;105991;1256;75843;-24
2023/04/10 04:49:57;;;;;;;18.50;11.90;;;;;;;9.08;91.45;99262.89;105981;1251;74024;-24
2023/04/10 04:52:47;;;;;;;20.30;12.30;;;;;;;9.66;90.22;99264.30;105946;1256;61502;-24
2023/04/10 04:55:42;;;;;;;20.30;14.40;;;;;;;9.97;87.45;99268.38;105794;1252;63186;-24
2023/04/10 04:58:30;;;;;;;31.50;16.50;;;;;;;9.83;87.24;99267.20;105844;1251;75345;-24
2023/04/10 05:01:29;;;;;;;24.40;15.20;;;;;;;9.67;88.11;99272.57;105336;1261;75664;-24
2023/04/10 05:03:58;;;;;;;42.90;26.20;;;;;;;9.34;89.87;99272.12;105932;1252;74045;-24
2023/04/10 05:06:57;;;;;;;38.70;22.80;;;;;;;9.06;92.02;99269.45;105927;1257;63553;-24
2023/04/10 05:09:46;;;;;;;151.30;76.30;;;;;;;9.69;90.30;99272.90;105766;1257;61629;-24
2023/04/10 05:12:24;;;;;;;58.20;33.40;;;;;;;9.82;88.60;99276.44;105736;1260;75374;-24
2023/04/10 05:14:59;;;;;;;51.00;28.90;;;;;;;9.85;88.23;99275.69;105755;1251;74928;-24
2023/04/10 05:17:27;;;;;;;59.10;36.00;;;;;;;9.76;88.50;99276.89;105682;1257;74142;-24
2023/04/10 05:20:16;;;;;;;53.80;36.70;;;;;;;9.58;89.28;99279.92;105680;1257;61893;-24
2023/04/10 05:23:10;;;;;;;13.30;10.00;;;;;;;9.50;90.11;99286.96;105688;1256;61848;-24
2023/04/10 05:25:57;;;;;;;24.70;15.50;;;;;;;10.06;88.14;99287.35;105726;1250;75399;-24
2023/04/10 05:28:52;;;;;;;18.90;14.60;;;;;;;10.48;85.77;99287.67;105483;1257;75840;-24
2023/04/10 05:31:40;;;;;;;16.70;11.40;;;;;;;10.41;85.58;99287.30;105717;1261;74167;-24
2023/04/10 05:34:14;;;;;;;13.00;10.10;;;;;;;10.10;86.35;99285.50;105719;1254;61941;-24
2023/04/10 05:36:53;;;;;;;16.60;12.60;;;;;;;9.73;87.72;99288.39;105687;1256;61902;-24
2023/04/10 05:39:40;;;;;;;7.80;6.40;;;;;;;9.53;90.17;99289.50;105653;1256;75415;-24
2023/04/10 05:42:39;;;;;;;16.80;11.20;;;;;;;10.11;87.65;99293.53;105720;1254;76078;-24
2023/04/10 05:45:21;;;;;;;14.20;9.60;;;;;;;10.18;86.93;99294.59;105751;1257;74204;-24
2023/04/10 05:48:13;;;;;;;15.90;10.40;;;;;;;10.14;86.80;99294.38;105535;1257;61968;-24
2023/04/10 05:50:54;;;;;;;16.70;11.40;;;;;;;10.00;86.82;99298.86;105594;1256;61830;-25
2023/04/10 05:53:35;;;;;;;18.00;10.90;;;;;;;9.70;87.96;99299.30;105749;1251;75233;-24
2023/04/10 05:56:24;;;;;;;13.10;8.90;;;;;;;9.72;89.31;99300.44;105363;1252;75442;-24
2023/04/10 05:59:06;;;;;;;14.10;10.40;;;;;;;10.14;87.38;99297.50;105653;1251;73993;-25
2023/04/10 06:01:56;;;;;;;14.30;9.80;;;;;;;10.13;86.31;99297.75;105571;1252;61700;-25
2023/04/10 06:04:25;;;;;;;14.70;9.90;;;;;;;9.81;86.46;99297.50;105527;1251;61828;-24
2023/04/10 06:06:57;;;;;;;10.60;6.70;;;;;;;9.65;87.29;99300.58;105929;1257;73261;-24
2023/04/10 06:09:26;;;;;;;8.40;5.80;;;;;;;9.66;87.61;99299.63;105752;1259;75924;-24
2023/04/10 06:11:55;;;;;;;8.60;6.20;;;;;;;10.13;86.75;99299.98;105708;1254;73180;-24
2023/04/10 06:14:24;;;;;;;8.40;7.20;;;;;;;10.28;86.25;99300.92;105686;1255;61875;-24
2023/04/10 06:16:53;;;;;;;13.00;9.40;;;;;;;10.20;86.28;99299.96;105756;1254;61515;-24
2023/04/10 06:19:22;;;;;;;13.70;10.90;;;;;;;10.01;87.03;99302.14;105713;1256;75383;-24
2023/04/10 06:21:51;;;;;;;8.60;6.10;;;;;;;9.92;88.45;99307.24;105684;1264;75729;-24
2023/04/10 06:24:21;;;;;;;10.30;7.60;;;;;;;10.47;87.78;99305.90;105766;1255;74150;-24
2023/04/10 06:26:50;;;;;;;13.10;8.70;;;;;;;10.78;85.14;99302.91;105800;1251;62041;-25
2023/04/10 06:29:19;;;;;;;11.50;8.10;;;;;;;10.63;84.68;99301.41;105905;1256;61656;-24
2023/04/10 06:31:50;;;;;;;12.30;9.30;;;;;;;10.32;85.53;99304.30;105810;1251;75540;-24
2023/04/10 06:34:20;;;;;;;11.30;8.90;;;;;;;10.17;86.83;99306.27;105658;1257;73722;-24
2023/04/10 06:36:59;;;;;;;9.60;6.60;;;;;;;9.49;88.88;99300.33;105962;1257;74133;-24
2023/04/10 06:39:28;;;;;;;9.30;6.70;;;;;;;9.97;88.71;99307.91;105879;1258;61176;-24
2023/04/10 06:41:57;;;;;;;15.00;9.00;;;;;;;10.21;86.16;99307.17;105833;1256;61492;-24
2023/04/10 06:44:44;;;;;;;13.50;9.00;;;;;;;10.41;86.00;99303.79;105776;1251;75252;-24
2023/04/10 06:47:15;;;;;;;14.00;10.30;;;;;;;10.41;85.22;99307.13;105717;1251;74932;-24
2023/04/10 06:49:52;;;;;;;15.10;11.80;;;;;;;10.25;85.28;99307.94;105706;1257;74112;-24
2023/04/10 06:52:21;;;;;;;9.00;6.60;;;;;;;10.02;86.14;99303.44;105608;1256;63278;-24
2023/04/10 06:54:50;;;;;;;11.30;7.40;;;;;;;10.35;85.35;99307.51;105668;1256;62125;-24
2023/04/10 06:57:18;;;;;;;10.60;7.90;;;;;;;10.83;83.56;99310.83;105605;1256;75573;-24
2023/04/10 06:59:49;;;;;;;9.50;7.50;;;;;;;10.81;83.05;99308.77;105763;1257;75878;-24
2023/04/10 07:02:18;;;;;;;12.90;8.90;;;;;;;10.77;82.90;99313.23;105826;1256;74264;-24
2023/04/10 07:04:47;;;;;;;12.20;8.90;;;;;;;10.61;83.26;99313.95;105982;1255;61173;-24
2023/04/10 07:07:18;;;;;;;7.50;5.40;;;;;;;10.41;84.06;99314.55;105965;1255;61569;-24
2023/04/10 07:09:50;;;;;;;8.10;4.90;;;;;;;10.98;83.54;99313.28;105531;1256;75464;-23
2023/04/10 07:12:18;;;;;;;13.10;8.60;;;;;;;11.53;80.48;99307.40;105735;1251;75760;-24
2023/04/10 07:14:51;;;;;;;9.40;8.20;;;;;;;11.64;79.93;99308.61;105852;1251;73991;-24
2023/04/10 07:17:20;;;;;;;5.90;4.70;;;;;;;11.27;80.34;99309.10;105729;1251;61894;-24
2023/04/10 07:19:49;;;;;;;8.00;5.60;;;;;;;11.08;80.39;99309.90;105701;1251;61103;-24
2023/04/10 07:22:20;;;;;;;7.00;5.20;;;;;;;11.00;81.11;99310.39;105587;1251;75355;-24
2023/04/10 07:24:50;;;;;;;5.50;4.00;;;;;;;10.88;81.31;99310.61;105805;1258;75759;-24
2023/04/10 07:27:19;;;;;;;34.50;20.80;;;;;;;11.50;80.97;99311.64;105781;1251;74270;-24
2023/04/10 07:29:48;;;;;;;49.60;31.50;;;;;;;11.86;79.78;99306.62;105722;1252;61198;-24
2023/04/10 07:32:17;;;;;;;11.60;8.70;;;;;;;11.94;79.32;99309.65;105918;1252;61051;-24
2023/04/10 07:34:46;;;;;;;11.50;8.90;;;;;;;11.62;79.89;99309.43;105933;1254;75429;-24
2023/04/10 07:37:14;;;;;;;16.50;11.10;;;;;;;11.72;80.69;99313.84;105855;1254;76259;-24
2023/04/10 07:39:43;;;;;;;11.50;9.00;;;;;;;11.18;82.60;99312.77;105855;1251;72819;-24
2023/04/10 07:42:12;;;;;;;6.60;4.40;;;;;;;11.28;82.38;99309.57;105705;1257;63544;-24
2023/04/10 07:44:40;;;;;;;8.90;5.20;;;;;;;11.55;80.24;99311.72;105548;1251;60997;-24
2023/04/10 07:47:09;;;;;;;7.90;5.30;;;;;;;12.00;78.35;99306.73;105782;1252;75237;-24
2023/04/10 07:49:38;;;;;;;6.50;4.90;;;;;;;11.92;77.47;99307.70;105924;1254;74722;-24
2023/04/10 07:52:06;;;;;;;5.70;4.80;;;;;;;11.69;77.71;99311.52;106003;1251;74416;-24
2023/04/10 07:54:35;;;;;;;4.90;4.10;;;;;;;11.53;76.71;99314.88;105686;1254;62081;-23
2023/04/10 07:57:04;;;;;;;6.10;4.10;;;;;;;11.22;77.97;99319.59;105708;1254;61762;-23
2023/04/10 07:59:34;;;;;;;3.00;2.30;;;;;;;11.13;78.53;99319.39;105960;1255;75077;-23
2023/04/10 08:02:03;;;;;;;3.20;2.60;;;;;;;11.76;79.16;99321.73;105987;1255;75854;-23
2023/04/10 08:04:32;;;;;;;2.60;2.20;;;;;;;12.28;76.17;99317.80;105875;1254;73930;-23
2023/04/10 08:07:01;;;;;;;3.90;3.50;;;;;;;12.32;73.71;99318.35;105937;1255;61311;-23
2023/04/10 08:09:29;;;;;;;2.70;2.30;;;;;;;12.26;76.27;99315.90;105791;1251;61879;-22
2023/04/10 08:11:59;;;;;;;3.10;2.40;;;;;;;12.14;74.60;99312.40;105720;1251;73106;-22
2023/04/10 08:14:28;;;;;;;2.20;2.00;;;;;;;11.98;74.03;99311.75;105633;1251;74823;-22
2023/04/10 08:17:01;;;;;;;3.60;2.20;;;;;;;11.67;73.87;99313.55;105714;1250;73930;-22
2023/04/10 08:19:30;;;;;;;2.20;1.90;;;;;;;11.35;74.95;99317.55;105789;1255;61931;-22
2023/04/10 08:21:59;;;;;;;3.20;2.60;;;;;;;11.36;74.91;99316.41;105888;1254;61711;-21
2023/04/10 08:24:28;;;;;;;2.90;2.00;;;;;;;11.75;73.97;99316.44;105927;1251;75159;-22
2023/04/10 08:27:16;;;;;;;3.10;2.80;;;;;;;11.75;72.93;99319.90;105925;1251;76897;-22
2023/04/10 08:29:45;;;;;;;3.20;2.40;;;;;;;11.50;73.75;99324.84;105936;1254;73941;-22
2023/04/10 08:32:13;;;;;;;1.60;1.50;;;;;;;11.27;74.73;99326.49;105805;1257;61919;-22
2023/04/10 08:34:42;;;;;;;3.30;1.90;;;;;;;11.12;74.77;99326.92;105882;1254;61845;-22
2023/04/10 08:37:11;;;;;;;1.90;1.40;;;;;;;10.95;76.44;99329.86;105900;1251;75210;-23
2023/04/10 08:39:39;;;;;;;1.40;1.10;;;;;;;11.27;77.03;99324.05;105703;1254;75403;-23
2023/04/10 08:42:12;;;;;;;4.30;1.90;;;;;;;11.56;74.77;99328.89;105709;1250;73886;-23
2023/04/10 08:44:42;;;;;;;1.40;1.20;;;;;;;11.46;75.12;99329.71;105655;1251;61683;-23
2023/04/10 08:47:11;;;;;;;2.10;1.40;;;;;;;11.29;75.02;99331.23;105597;1257;61847;-23
2023/04/10 08:49:52;;;;;;;;;;;;;;;11.01;75.52;99328.69;105600;1251;75368;-23
2023/04/10 08:52:26;;;;;;;0.70;0.40;;;;;;;10.66;75.96;99334.17;105742;1251;74756;-23
2023/04/10 08:54:55;;;;;;;1.10;0.70;;;;;;;10.81;77.13;99336.89;105752;1257;74138;-23
2023/04/10 08:57:25;;;;;;;2.00;1.00;;;;;;;11.03;75.53;99331.89;105838;1251;61150;-22
2023/04/10 08:59:54;;;;;;;0.90;0.80;;;;;;;11.01;75.78;99333.02;105846;1254;61160;-22
2023/04/10 09:02:25;;;;;;;0.70;0.70;;;;;;;10.83;76.69;99338.63;105896;1250;75219;-23
2023/04/10 09:04:54;;;;;;;1.20;1.10;;;;;;;10.65;76.90;99340.53;105897;1251;75706;-22
2023/04/10 09:07:22;;;;;;;0.70;0.60;;;;;;;10.55;77.53;99333.63;105927;1251;73203;-22
2023/04/10 09:09:51;;;;;;;0.90;0.90;;;;;;;10.91;77.68;99337.48;105824;1250;61908;-22
2023/04/10 09:12:21;;;;;;;1.00;0.80;;;;;;;11.12;76.15;99333.40;105912;1254;61668;-22
2023/04/10 09:14:52;;;;;;;1.00;0.70;;;;;;;11.05;76.06;99335.36;105892;1254;74461;-22
2023/04/10 09:17:28;;;;;;;1.30;1.00;;;;;;;10.91;76.01;99335.79;105922;1252;74897;-22
2023/04/10 09:20:01;;;;;;;0.70;0.70;;;;;;;10.99;76.84;99331.13;105865;1251;74141;-22
2023/04/10 09:22:31;;;;;;;1.00;0.90;;;;;;;11.56;75.69;99329.92;105774;1250;61337;-23
2023/04/10 09:25:06;;;;;;;1.20;0.90;;;;;;;12.10;73.25;99325.20;105540;1251;61874;-23
2023/04/10 09:27:37;;;;;;;0.90;0.80;;;;;;;12.17;72.68;99325.20;105602;1250;75841;-23
2023/04/10 09:30:07;;;;;;;2.60;2.20;;;;;;;12.19;72.85;99329.36;105846;1254;75623;-23
2023/04/10 09:32:38;;;;;;;3.40;1.80;;;;;;;12.26;73.25;99328.05;105621;1257;73926;-23
2023/04/10 09:35:09;;;;;;;2.80;2.10;;;;;;;12.18;73.17;99326.11;105753;1251;61717;-23
2023/04/10 09:37:39;;;;;;;2.40;1.80;;;;;;;12.05;72.32;99324.95;105691;1258;61793;-23
2023/04/10 09:40:20;;;;;;;1.30;1.00;;;;;;;11.89;73.32;99328.27;105962;1251;75391;-23
2023/04/10 09:42:48;;;;;;;1.30;1.10;;;;;;;12.08;74.47;99327.98;105751;1257;75846;-23
2023/04/10 09:45:19;;;;;;;1.20;1.00;;;;;;;12.62;71.58;99325.77;106026;1251;74074;-23
2023/04/10 09:48:05;;;;;;;1.10;1.00;;;;;;;12.57;70.40;99328.61;105894;1251;61842;-23
2023/04/10 09:50:39;;;;;;;1.20;1.00;;;;;;;12.51;71.62;99328.39;105782;1251;61199;-23
2023/04/10 09:53:15;;;;;;;1.10;1.00;;;;;;;12.40;72.10;99322.39;105898;1257;75439;-23
2023/04/10 09:55:46;;;;;;;1.50;1.10;;;;;;;12.34;71.43;99319.94;105921;1257;75734;-23
2023/04/10 09:58:15;;;;;;;1.80;1.10;;;;;;;12.28;72.89;99319.71;105731;1257;74229;-23
2023/04/10 10:00:45;;;;;;;2.10;0.70;;;;;;;12.36;72.67;99314.30;105976;1254;63532;-24
2023/04/10 10:03:17;;;;;;;0.80;0.70;;;;;;;12.67;69.63;99308.77;105505;1258;61929;-23
2023/04/10 10:05:49;;;;;;;1.50;1.00;;;;;;;13.21;67.42;99310.87;105598;1257;74117;-23
2023/04/10 10:08:25;;;;;;;1.90;1.20;;;;;;;13.34;66.49;99313.23;105589;1259;75913;-23
2023/04/10 10:10:56;;;;;;;1.00;0.70;;;;;;;13.37;66.92;99312.65;105688;1251;72927;-23
2023/04/10 10:13:34;;;;;;;1.00;0.90;;;;;;;13.61;65.87;99304.09;105890;1251;61058;-23
2023/04/10 10:16:14;;;;;;;0.90;0.80;;;;;;;13.53;65.31;99303.24;105857;1252;62155;-23
2023/04/10 10:19:00;;;;;;;0.60;0.60;;;;;;;13.26;66.15;99306.94;105912;1257;75368;-23
2023/04/10 10:21:29;;;;;;;0.90;0.80;;;;;;;13.11;65.03;99304.27;105709;1258;75072;-23
2023/04/10 10:24:00;;;;;;;1.50;1.20;;;;;;;12.94;67.47;99305.59;105924;1251;74016;-23
2023/04/10 10:26:29;;;;;;;2.50;1.40;;;;;;;13.13;67.98;99300.65;105915;1256;61170;-24
2023/04/10 10:28:58;;;;;;;1.50;1.20;;;;;;;13.42;66.78;99297.73;105987;1253;61686;-23
2023/04/10 10:31:32;;;;;;;2.20;1.70;;;;;;;13.58;66.72;99294.98;105741;1258;74004;-23
2023/04/10 10:34:05;;;;;;;2.50;1.50;;;;;;;13.67;67.09;99297.74;105873;1257;75893;-23
2023/04/10 10:36:35;;;;;;;2.10;1.30;;;;;;;13.93;65.36;99294.61;105707;1254;73371;-24
2023/04/10 10:39:19;;;;;;;1.50;1.30;;;;;;;13.98;64.04;99285.77;105577;1258;61237;-24
2023/04/10 10:42:12;;;;;;;1.60;1.40;;;;;;;13.72;63.99;99290.73;105938;1256;61962;-24
2023/04/10 10:44:56;;;;;;;4.00;2.00;;;;;;;13.40;64.27;99282.80;105923;1251;75600;-23
2023/04/10 10:47:27;;;;;;;2.00;1.60;;;;;;;13.40;64.65;99282.79;105740;1257;75752;-23
2023/04/10 10:50:00;;;;;;;3.30;1.90;;;;;;;13.23;65.39;99284.20;105642;1255;73231;-23
2023/04/10 10:52:35;;;;;;;2.60;1.70;;;;;;;12.75;64.89;99282.67;105550;1257;62175;-23
2023/04/10 10:55:21;;;;;;;2.80;2.00;;;;;;;12.86;65.31;99282.59;105666;1251;61938;-24
2023/04/10 10:57:54;;;;;;;1.80;1.40;;;;;;;13.27;65.37;99278.79;105912;1253;74838;-23
2023/04/10 11:00:23;;;;;;;1.30;0.80;;;;;;;13.52;63.67;99274.58;105518;1254;75848;-23
2023/04/10 11:03:07;;;;;;;2.70;1.40;;;;;;;13.27;61.26;99270.42;105544;1251;73937;-23
2023/04/10 11:13:18;;;;;;;0.80;0.70;;;;;;;14.66;59.00;99267.80;102582;1295;599485;-22
2023/04/10 11:15:47;;;;;;;0.50;0.50;;;;;;;14.97;57.09;99268.73;104787;1266;61280;-23
2023/04/10 11:18:19;;;;;;;0.80;0.80;;;;;;;14.77;55.75;99271.30;104800;1274;61869;-24
2023/04/10 11:21:08;;;;;;;1.20;1.00;;;;;;;14.53;58.38;99280.19;104890;1266;73711;-24
2023/04/10 11:23:57;;;;;;;1.60;1.20;;;;;;;14.32;58.30;99274.45;104768;1266;75526;-24
2023/04/10 11:26:41;;;;;;;1.00;0.80;;;;;;;14.14;59.27;99276.44;103269;1266;2200402;-23
2023/04/10 11:29:16;;;;;;;;;;;;;;;13.99;59.13;99274.48;105041;1264;61777;-24
2023/04/10 11:31:54;;;;;;;1.60;1.20;;;;;;;13.54;60.44;99271.10;104934;1267;61106;-23
2023/04/10 11:34:22;;;;;;;2.40;1.60;;;;;;;13.30;61.60;99272.45;105029;1268;73690;-23
2023/04/10 11:36:52;;;;;;;3.80;2.00;;;;;;;13.02;65.08;99282.73;105164;1266;75831;-21
2023/04/10 11:39:21;;;;;;;3.60;2.10;;;;;;;12.44;72.93;99293.67;105035;1264;72188;-19
2023/04/10 11:41:50;;;;;;;6.40;3.10;;;;;;;12.12;76.92;99296.20;104935;1263;62355;-20
2023/04/10 11:44:29;;;;;;;2.80;1.90;;;;;;;12.34;76.60;99300.59;104613;1268;61899;-20
2023/04/10 11:46:57;;;;;;;3.50;2.20;;;;;;;11.54;77.93;99300.84;104896;1271;74343;-21
2023/04/10 11:49:30;;;;;;;4.00;2.20;;;;;;;11.51;78.36;99301.45;105201;1267;74943;-21
2023/04/10 11:51:58;;;;;;;3.60;2.90;;;;;;;11.23;78.91;99308.22;104811;1266;73262;-21
2023/04/10 11:54:28;;;;;;;3.30;3.00;;;;;;;10.85;80.57;99302.54;105228;1266;61161;-21
2023/04/10 11:57:11;;;;;;;4.60;3.00;;;;;;;10.81;81.30;99306.34;104892;1266;60989;-21
2023/04/10 11:59:40;;;;;;;3.60;1.90;;;;;;;10.66;81.96;99305.68;105018;1268;73605;-21
2023/04/10 12:02:15;;;;;;;3.60;2.50;;;;;;;11.02;78.31;99308.34;105200;1265;76028;-21
2023/04/10 12:04:44;;;;;;;5.90;3.50;;;;;;;11.06;78.43;99316.85;104878;1266;73900;-21
2023/04/10 12:07:13;;;;;;;2.90;2.30;;;;;;;10.60;81.56;99324.79;105198;1263;61180;-21
2023/04/10 12:09:41;;;;;;;5.90;4.00;;;;;;;10.33;80.22;99316.55;105190;1266;61643;-21
2023/04/10 12:12:11;;;;;;;4.50;3.10;;;;;;;9.69;83.31;99312.42;105176;1268;74199;-21